Time;durP1;ratioP1;P1;durP2;ratioP2;P2;SDS_P1;SDS_P2;PMS_P1;PMS_P2;Temp;Humidity;BMP_temperature;BMP_pressure;BME280_temperature;BME280_humidity;BME280_pressure;Samples;Min_cycle;Max_cycle;Signal;HPM_P1;HPM_P2
2023/04/23 00:01:07;;;;;;;14.45;4.25;;;15.90;87.10;;;;;;5045238;28;20029;-59
2023/04/23 00:03:33;;;;;;;19.67;3.63;;;15.90;87.00;;;;;;5045228;28;20036;-58
2023/04/23 00:05:59;;;;;;;15.88;3.97;;;15.90;87.10;;;;;;5046421;28;20096;-59
2023/04/23 00:08:25;;;;;;;14.73;4.72;;;15.90;86.90;;;;;;5046446;28;20033;-58
2023/04/23 00:10:51;;;;;;;12.68;4.22;;;15.90;87.00;;;;;;5044929;28;20034;-59
2023/04/23 00:13:16;;;;;;;12.30;4.07;;;15.80;86.90;;;;;;5046380;28;20040;-59
2023/04/23 00:15:43;;;;;;;13.48;3.78;;;15.90;87.00;;;;;;5044906;28;20032;-58
2023/04/23 00:18:08;;;;;;;11.38;4.32;;;15.90;87.00;;;;;;5046420;28;20141;-58
2023/04/23 00:20:35;;;;;;;14.52;4.40;;;15.80;86.80;;;;;;5046005;28;20056;-58
2023/04/23 00:23:01;;;;;;;11.90;4.05;;;15.80;86.80;;;;;;5044809;28;20060;-58
2023/04/23 00:25:27;;;;;;;13.15;3.95;;;15.80;86.80;;;;;;5046101;28;20033;-58
2023/04/23 00:27:52;;;;;;;13.25;4.78;;;15.80;86.80;;;;;;5046274;28;20041;-58
2023/04/23 00:30:18;;;;;;;12.38;4.22;;;15.80;86.90;;;;;;5046006;28;20045;-58
2023/04/23 00:32:43;;;;;;;9.45;3.90;;;15.80;87.20;;;;;;5046089;28;20068;-59
2023/04/23 00:35:09;;;;;;;8.65;3.92;;;15.80;87.30;;;;;;5044516;28;20033;-58
2023/04/23 00:37:35;;;;;;;14.15;4.63;;;15.70;87.00;;;;;;5045297;28;20037;-59
2023/04/23 00:40:01;;;;;;;11.70;3.33;;;15.70;87.20;;;;;;5045461;28;20049;-58
2023/04/23 00:42:27;;;;;;;12.30;4.25;;;15.70;87.10;;;;;;5044440;28;20021;-59
2023/04/23 00:44:53;;;;;;;9.68;3.70;;;15.70;87.10;;;;;;5027906;28;20045;-59
2023/04/23 00:47:19;;;;;;;15.05;4.30;;;15.70;87.20;;;;;;5045738;28;20048;-58
2023/04/23 00:49:45;;;;;;;12.07;3.40;;;15.70;87.20;;;;;;5045520;28;20435;-59
2023/04/23 00:52:10;;;;;;;11.52;4.43;;;15.60;87.20;;;;;;5044282;28;20029;-58
2023/04/23 00:54:36;;;;;;;11.30;3.55;;;15.60;87.10;;;;;;5045422;28;20500;-59
2023/04/23 00:57:02;;;;;;;12.20;3.92;;;15.70;87.30;;;;;;5045537;28;20034;-59
2023/04/23 00:59:27;;;;;;;8.32;3.70;;;15.70;87.50;;;;;;5045410;28;20025;-58
2023/04/23 01:01:53;;;;;;;10.25;3.75;;;15.60;87.50;;;;;;5044206;28;20029;-58
2023/04/23 01:04:19;;;;;;;11.43;4.20;;;15.60;87.50;;;;;;5045351;28;20465;-59
2023/04/23 01:06:46;;;;;;;8.63;3.45;;;15.60;87.40;;;;;;5027564;28;20029;-58
2023/04/23 01:09:11;;;;;;;10.15;3.72;;;15.60;87.60;;;;;;5043440;28;20100;-59
2023/04/23 01:11:42;;;;;;;8.80;3.60;;;15.60;87.60;;;;;;5044603;28;20037;-59
2023/04/23 01:14:08;;;;;;;11.60;3.78;;;15.60;87.50;;;;;;5043877;28;20033;-59
2023/04/23 01:16:35;;;;;;;13.15;3.70;;;15.50;88.20;;;;;;5045139;28;20033;-59
2023/04/23 01:19:01;;;;;;;10.43;3.30;;;15.50;87.50;;;;;;5045152;28;20026;-59
2023/04/23 01:21:27;;;;;;;7.25;3.53;;;15.50;87.60;;;;;;5045031;28;20103;-59
2023/04/23 01:23:53;;;;;;;10.05;3.35;;;15.50;87.70;;;;;;5043815;28;20100;-59
2023/04/23 01:26:19;;;;;;;7.07;3.25;;;15.50;87.90;;;;;;5043611;28;20033;-59
2023/04/23 01:28:45;;;;;;;9.05;3.30;;;15.50;87.90;;;;;;5045151;28;20022;-59
2023/04/23 01:31:13;;;;;;;9.10;4.13;;;15.50;87.90;;;;;;5045033;28;20041;-59
2023/04/23 01:33:42;;;;;;;10.73;3.50;;;15.40;88.10;;;;;;5045138;28;20033;-59
2023/04/23 01:36:07;;;;;;;10.70;3.33;;;15.40;88.10;;;;;;5044783;28;20103;-59
2023/04/23 01:38:33;;;;;;;11.00;3.63;;;15.40;88.20;;;;;;5044967;28;20041;-59
2023/04/23 01:40:58;;;;;;;9.77;3.38;;;15.40;88.30;;;;;;5043561;28;20104;-59
2023/04/23 01:43:24;;;;;;;9.27;3.35;;;15.40;88.30;;;;;;5044794;28;20497;-59
2023/04/23 01:45:51;;;;;;;9.13;3.08;;;15.40;88.40;;;;;;5044664;28;20033;-59
2023/04/23 01:48:17;;;;;;;6.13;2.95;;;15.40;88.10;;;;;;5043462;28;20157;-59
2023/04/23 01:50:42;;;;;;;10.80;3.67;;;15.40;88.20;;;;;;5043151;28;20082;-59
2023/04/23 01:53:08;;;;;;;14.07;3.75;;;15.30;88.20;;;;;;5043127;28;20045;-59
2023/04/23 01:55:36;;;;;;;9.73;3.47;;;15.40;88.30;;;;;;5044954;28;20033;-59
2023/04/23 01:58:02;;;;;;;13.23;3.60;;;15.30;88.30;;;;;;5043426;28;20099;-59
2023/04/23 02:00:28;;;;;;;8.82;3.45;;;15.30;88.40;;;;;;5043341;28;20462;-60
2023/04/23 02:02:54;;;;;;;8.60;3.38;;;15.30;88.40;;;;;;5044745;28;20029;-60
2023/04/23 02:05:20;;;;;;;8.45;3.17;;;15.30;89.10;;;;;;5044623;28;20076;-59
2023/04/23 02:07:46;;;;;;;9.20;3.22;;;15.30;88.50;;;;;;5044765;28;20026;-60
2023/04/23 02:10:12;;;;;;;6.72;3.30;;;15.20;88.50;;;;;;5043377;28;20025;-60
2023/04/23 02:12:38;;;;;;;7.50;3.40;;;15.20;88.50;;;;;;5044570;28;20040;-59
2023/04/23 02:15:05;;;;;;;8.70;3.08;;;15.20;88.50;;;;;;5044304;28;20025;-59
2023/04/23 02:17:31;;;;;;;9.77;3.90;;;15.20;89.30;;;;;;5045909;28;20153;-60
2023/04/23 02:19:57;;;;;;;7.93;3.10;;;15.20;88.90;;;;;;5044472;28;20030;-59
2023/04/23 02:22:24;;;;;;;8.23;3.08;;;15.20;88.80;;;;;;5044622;28;20125;-59
2023/04/23 02:24:50;;;;;;;7.65;2.60;;;15.20;88.80;;;;;;5043165;28;20044;-60
2023/04/23 02:27:16;;;;;;;7.43;3.33;;;15.20;89.00;;;;;;5044329;28;20038;-59
2023/04/23 02:29:41;;;;;;;6.50;3.03;;;15.20;89.20;;;;;;5044466;28;20036;-60
2023/04/23 02:32:07;;;;;;;4.57;2.75;;;15.10;89.00;;;;;;5044342;28;20049;-60
2023/04/23 02:34:33;;;;;;;10.23;3.28;;;15.20;89.10;;;;;;5044248;28;20036;-59
2023/04/23 02:36:58;;;;;;;7.00;2.97;;;15.10;89.10;;;;;;5042945;28;20029;-59
2023/04/23 02:39:25;;;;;;;3.38;2.40;;;15.10;89.10;;;;;;5044288;28;20021;-60
2023/04/23 02:41:50;;;;;;;8.00;3.08;;;15.10;89.20;;;;;;5044391;28;20030;-59
2023/04/23 02:44:16;;;;;;;5.80;3.00;;;15.10;89.30;;;;;;5044328;28;20513;-60
2023/04/23 02:46:41;;;;;;;8.73;3.05;;;15.10;89.30;;;;;;5044292;28;20101;-60
2023/04/23 02:49:07;;;;;;;8.10;2.85;;;15.10;89.30;;;;;;5044226;28;20099;-59
2023/04/23 02:51:32;;;;;;;7.97;3.50;;;15.00;89.20;;;;;;5044194;28;20035;-60
2023/04/23 02:53:59;;;;;;;7.30;3.00;;;15.00;89.40;;;;;;5043948;28;20037;-59
2023/04/23 02:56:25;;;;;;;8.75;3.20;;;15.00;89.30;;;;;;5042831;28;20040;-60
2023/04/23 02:58:51;;;;;;;7.57;3.20;;;15.00;89.60;;;;;;5042739;28;20034;-60
2023/04/23 03:01:17;;;;;;;7.50;3.15;;;15.00;89.60;;;;;;5044679;28;20041;-59
2023/04/23 03:03:43;;;;;;;7.95;3.17;;;15.00;89.50;;;;;;5029622;28;20026;-60
2023/04/23 03:06:08;;;;;;;4.80;2.67;;;15.00;89.50;;;;;;5047560;28;20014;-59
2023/04/23 03:08:34;;;;;;;9.40;2.80;;;15.00;89.60;;;;;;5047599;28;20033;-59
2023/04/23 03:10:59;;;;;;;6.32;3.08;;;15.00;89.70;;;;;;5047672;28;20034;-59
2023/04/23 03:13:25;;;;;;;5.97;2.88;;;15.00;89.80;;;;;;5046152;28;20386;-59
2023/04/23 03:15:51;;;;;;;7.25;2.83;;;15.00;89.80;;;;;;5046258;28;20052;-60
2023/04/23 03:18:18;;;;;;;7.35;2.38;;;15.00;89.80;;;;;;5047334;28;20037;-59
2023/04/23 03:20:43;;;;;;;7.32;2.67;;;15.00;89.80;;;;;;5047210;28;20043;-59
2023/04/23 03:23:09;;;;;;;9.20;2.85;;;14.90;89.80;;;;;;5047199;28;20896;-59
2023/04/23 03:25:35;;;;;;;6.75;2.70;;;14.90;89.90;;;;;;5047269;28;20132;-59
2023/04/23 03:28:00;;;;;;;7.15;3.00;;;14.90;90.10;;;;;;5047165;28;20022;-59
2023/04/23 03:30:26;;;;;;;6.60;2.70;;;14.90;90.00;;;;;;5047207;28;20037;-60
2023/04/23 03:32:53;;;;;;;7.45;2.88;;;14.90;90.00;;;;;;5047137;28;20100;-60
2023/04/23 03:35:19;;;;;;;10.00;3.25;;;14.90;90.00;;;;;;5047157;28;20057;-59
2023/04/23 03:37:44;;;;;;;6.88;2.92;;;14.90;90.00;;;;;;5045774;28;20462;-59
2023/04/23 03:40:10;;;;;;;7.15;2.92;;;14.90;90.00;;;;;;5045579;28;20033;-59
2023/04/23 03:42:36;;;;;;;5.65;2.65;;;14.80;90.00;;;;;;5045726;28;20025;-59
2023/04/23 03:45:02;;;;;;;4.90;2.83;;;14.80;90.10;;;;;;5047023;28;20109;-59
2023/04/23 03:47:27;;;;;;;4.45;2.58;;;14.80;90.10;;;;;;5045426;28;20029;-59
2023/04/23 03:49:53;;;;;;;6.30;2.95;;;14.80;90.40;;;;;;5045242;28;20101;-59
2023/04/23 03:52:19;;;;;;;6.53;2.60;;;14.80;90.20;;;;;;5046952;28;20025;-59
2023/04/23 03:54:44;;;;;;;8.75;2.83;;;14.70;90.20;;;;;;5046420;28;20076;-59
2023/04/23 03:57:11;;;;;;;7.07;2.83;;;14.80;90.20;;;;;;5046902;28;20053;-59
2023/04/23 03:59:37;;;;;;;4.43;2.60;;;14.70;90.20;;;;;;5045218;28;20056;-60
2023/04/23 04:02:03;;;;;;;3.33;2.13;;;14.80;90.30;;;;;;5046725;28;20411;-59
2023/04/23 04:04:29;;;;;;;4.93;2.28;;;14.70;90.30;;;;;;5046806;28;20025;-59
2023/04/23 04:06:55;;;;;;;7.78;2.85;;;14.70;90.30;;;;;;5046397;28;20036;-60
2023/04/23 04:09:21;;;;;;;4.75;2.10;;;14.70;90.30;;;;;;5046921;28;20089;-60
2023/04/23 04:11:46;;;;;;;5.07;2.42;;;14.70;90.30;;;;;;5046448;28;20079;-59
2023/04/23 04:14:12;;;;;;;4.78;2.17;;;14.70;90.30;;;;;;5046458;28;20025;-59
2023/04/23 04:16:38;;;;;;;4.68;2.28;;;14.70;90.40;;;;;;5045064;28;20048;-60
2023/04/23 04:19:04;;;;;;;5.63;2.35;;;14.70;90.40;;;;;;5046391;28;20055;-60
2023/04/23 04:21:31;;;;;;;6.03;2.50;;;14.70;90.40;;;;;;5046215;28;20041;-59
2023/04/23 04:23:56;;;;;;;5.70;2.63;;;14.70;90.40;;;;;;5046448;28;20029;-59
2023/04/23 04:26:24;;;;;;;6.90;2.55;;;14.70;90.50;;;;;;5046200;28;20029;-59
2023/04/23 04:28:50;;;;;;;14.15;2.90;;;14.70;90.50;;;;;;5046076;28;20063;-59
2023/04/23 04:31:16;;;;;;;5.22;2.72;;;14.60;90.50;;;;;;5046224;28;20037;-59
2023/04/23 04:33:42;;;;;;;5.53;2.45;;;14.60;90.50;;;;;;5046054;28;20025;-59
2023/04/23 04:36:08;;;;;;;5.57;2.70;;;14.60;90.50;;;;;;5045891;28;20073;-60
2023/04/23 04:38:36;;;;;;;8.20;2.60;;;14.60;90.60;;;;;;5046054;28;20032;-60
2023/04/23 04:41:02;;;;;;;6.47;2.55;;;14.60;90.60;;;;;;5045804;28;20036;-59
2023/04/23 04:43:27;;;;;;;4.03;2.40;;;14.60;90.70;;;;;;5044577;28;20029;-60
2023/04/23 04:45:53;;;;;;;6.35;2.80;;;14.60;90.60;;;;;;5045712;28;20028;-60
2023/04/23 04:48:19;;;;;;;4.53;2.38;;;14.60;90.70;;;;;;5045700;28;20037;-59
2023/04/23 04:50:45;;;;;;;5.38;2.38;;;14.60;90.70;;;;;;5046098;28;20108;-60
2023/04/23 04:53:11;;;;;;;7.13;2.60;;;14.60;90.70;;;;;;5045522;28;20029;-59
2023/04/23 04:55:36;;;;;;;3.90;2.47;;;14.50;90.70;;;;;;5045824;28;20425;-60
2023/04/23 04:58:02;;;;;;;3.67;2.47;;;14.50;90.70;;;;;;5045653;28;20025;-59
2023/04/23 05:00:28;;;;;;;4.07;2.35;;;14.60;90.80;;;;;;5045384;28;20056;-60
2023/04/23 05:02:55;;;;;;;4.63;2.50;;;14.50;90.70;;;;;;5045406;28;20025;-59
2023/04/23 05:05:22;;;;;;;5.07;2.40;;;14.50;90.80;;;;;;5044215;28;20033;-60
2023/04/23 05:07:47;;;;;;;7.40;2.80;;;14.50;90.80;;;;;;5045522;28;20041;-59
2023/04/23 05:10:14;;;;;;;5.43;2.20;;;14.50;90.80;;;;;;5045479;28;20040;-59
2023/04/23 05:12:42;;;;;;;3.40;2.22;;;14.50;90.80;;;;;;5045413;28;20064;-59
2023/04/23 05:15:09;;;;;;;7.00;2.28;;;14.50;90.90;;;;;;5045411;28;20034;-59
2023/04/23 05:17:36;;;;;;;4.85;2.53;;;14.50;90.90;;;;;;5045388;28;20037;-59
2023/04/23 05:20:01;;;;;;;4.20;2.67;;;14.50;91.20;;;;;;5045226;28;20063;-59
2023/04/23 05:22:27;;;;;;;4.90;2.50;;;14.50;90.90;;;;;;5045163;28;20089;-59
2023/04/23 05:24:52;;;;;;;4.15;2.60;;;14.50;90.90;;;;;;5044654;28;20093;-59
2023/04/23 05:27:18;;;;;;;3.47;2.38;;;14.50;90.90;;;;;;5045019;28;20052;-59
2023/04/23 05:29:44;;;;;;;3.97;2.33;;;14.40;91.00;;;;;;5043661;28;20026;-60
2023/04/23 05:32:09;;;;;;;5.20;2.60;;;14.50;91.00;;;;;;5045098;28;20056;-59
2023/04/23 05:34:35;;;;;;;4.68;2.63;;;14.40;91.00;;;;;;5027092;28;20443;-60
2023/04/23 05:37:01;;;;;;;6.00;2.70;;;14.40;91.00;;;;;;5043687;28;20026;-59
2023/04/23 05:39:27;;;;;;;5.38;2.47;;;14.40;91.10;;;;;;5043619;28;20060;-59
2023/04/23 05:41:52;;;;;;;7.93;2.50;;;14.40;91.10;;;;;;5027126;28;20122;-60
2023/04/23 05:44:18;;;;;;;4.53;2.25;;;14.40;91.10;;;;;;5044906;28;20044;-60
2023/04/23 05:46:43;;;;;;;7.00;2.90;;;14.40;91.10;;;;;;5044727;28;20087;-59
2023/04/23 05:49:09;;;;;;;5.57;2.60;;;14.40;91.10;;;;;;5044729;28;20033;-59
2023/04/23 05:51:36;;;;;;;5.82;2.42;;;14.40;91.10;;;;;;5044676;28;20059;-59
2023/04/23 05:54:01;;;;;;;4.22;2.40;;;14.40;91.10;;;;;;5044790;28;20033;-59
2023/04/23 05:56:27;;;;;;;6.63;2.38;;;14.40;91.10;;;;;;5044927;28;20048;-59
2023/04/23 05:58:52;;;;;;;6.80;2.78;;;14.40;91.40;;;;;;5044846;28;20048;-59
2023/04/23 06:01:18;;;;;;;2.85;2.15;;;14.40;91.10;;;;;;5044582;28;20033;-59
2023/04/23 06:03:44;;;;;;;4.45;2.30;;;14.40;91.10;;;;;;5043499;28;20029;-59
2023/04/23 06:06:11;;;;;;;4.50;2.33;;;14.40;91.10;;;;;;5043618;28;20488;-60
2023/04/23 06:08:37;;;;;;;5.40;2.22;;;14.40;91.40;;;;;;5044559;28;20029;-59
2023/04/23 06:11:03;;;;;;;4.47;2.45;;;14.40;91.10;;;;;;5044594;28;20103;-60
2023/04/23 06:13:29;;;;;;;5.10;2.97;;;14.40;91.20;;;;;;5044419;28;20454;-59
2023/04/23 06:15:55;;;;;;;5.03;2.55;;;14.40;91.20;;;;;;5043467;28;20037;-59
2023/04/23 06:18:21;;;;;;;3.65;2.22;;;14.40;91.20;;;;;;5044584;28;20029;-59
2023/04/23 06:20:47;;;;;;;4.55;2.05;;;14.40;91.20;;;;;;5044470;28;20044;-59
2023/04/23 06:23:13;;;;;;;3.03;2.40;;;14.40;91.20;;;;;;5044533;28;20041;-59
2023/04/23 06:25:39;;;;;;;3.63;2.30;;;14.40;91.20;;;;;;5044368;28;20033;-59
2023/04/23 06:28:04;;;;;;;3.22;2.13;;;14.40;91.20;;;;;;5044370;28;20021;-59
2023/04/23 06:30:30;;;;;;;4.28;2.25;;;14.40;91.10;;;;;;5044389;28;20030;-60
2023/04/23 06:32:55;;;;;;;4.63;2.50;;;14.40;91.40;;;;;;5044388;28;20128;-59
2023/04/23 06:35:21;;;;;;;3.42;2.45;;;14.40;91.10;;;;;;5043068;28;20082;-60
2023/04/23 06:37:46;;;;;;;3.53;2.33;;;14.50;91.10;;;;;;5047486;28;20029;-56
2023/04/23 06:40:12;;;;;;;3.88;2.20;;;14.40;91.10;;;;;;5048200;28;20040;-56
2023/04/23 06:42:38;;;;;;;3.97;2.30;;;14.40;91.10;;;;;;5048284;28;20031;-56
2023/04/23 06:45:04;;;;;;;6.53;2.45;;;14.50;91.10;;;;;;5048023;28;20108;-56
2023/04/23 06:47:30;;;;;;;3.72;2.35;;;14.40;91.10;;;;;;5048231;28;20073;-56
2023/04/23 06:50:01;;;;;;;4.20;2.35;;;14.50;91.10;;;;;;5048107;28;20029;-56
2023/04/23 06:52:26;;;;;;;5.43;2.72;;;14.50;91.10;;;;;;5048035;28;20030;-56
2023/04/23 06:54:52;;;;;;;4.22;2.40;;;14.50;91.10;;;;;;5047655;28;20037;-56
2023/04/23 06:57:17;;;;;;;6.00;2.67;;;14.50;91.10;;;;;;5047700;28;20057;-56
2023/04/23 06:59:43;;;;;;;4.78;2.30;;;14.50;91.10;;;;;;5046337;28;20084;-56
2023/04/23 07:02:08;;;;;;;6.10;2.40;;;14.50;91.50;;;;;;5047828;28;20077;-56
2023/04/23 07:04:35;;;;;;;4.15;2.10;;;14.50;91.20;;;;;;5047890;28;20056;-56
2023/04/23 07:07:00;;;;;;;3.00;2.33;;;14.50;91.20;;;;;;5046618;28;20423;-56
2023/04/23 07:09:27;;;;;;;6.28;2.60;;;14.50;91.20;;;;;;5047936;28;20034;-56
2023/04/23 07:11:52;;;;;;;3.58;2.30;;;14.50;91.20;;;;;;5047381;28;20048;-56
2023/04/23 07:14:18;;;;;;;4.03;2.42;;;14.50;91.20;;;;;;5047625;28;20029;-56
2023/04/23 07:16:43;;;;;;;4.78;2.20;;;14.50;91.20;;;;;;5047477;28;20094;-56
2023/04/23 07:19:09;;;;;;;5.57;2.58;;;14.60;91.20;;;;;;5047479;28;20041;-56
2023/04/23 07:21:35;;;;;;;4.80;2.58;;;14.60;91.20;;;;;;5047641;28;20048;-56
2023/04/23 07:24:05;;;;;;;3.28;2.50;;;14.60;91.10;;;;;;5047500;28;20089;-56
2023/04/23 07:26:32;;;;;;;4.53;2.30;;;14.60;91.10;;;;;;5047561;28;20024;-56
2023/04/23 07:28:58;;;;;;;3.40;2.40;;;14.60;91.00;;;;;;5045963;28;20030;-56
2023/04/23 07:31:23;;;;;;;8.95;2.38;;;14.70;91.00;;;;;;5047185;28;20026;-56
2023/04/23 07:33:49;;;;;;;3.10;2.08;;;14.60;91.00;;;;;;5047278;28;20156;-56
2023/04/23 07:36:15;;;;;;;6.00;2.50;;;14.70;91.00;;;;;;5045802;28;20061;-56
2023/04/23 07:38:40;;;;;;;4.05;2.45;;;14.70;91.00;;;;;;5047064;28;20029;-56
2023/04/23 07:41:06;;;;;;;3.38;2.20;;;14.70;90.90;;;;;;5045411;28;20033;-56
2023/04/23 07:43:31;;;;;;;8.23;2.10;;;14.70;90.90;;;;;;5047221;28;20026;-56
2023/04/23 07:45:58;;;;;;;2.60;2.17;;;14.70;90.90;;;;;;5045463;28;20026;-56
2023/04/23 07:48:24;;;;;;;3.20;2.20;;;14.80;90.90;;;;;;5046558;28;20036;-56
2023/04/23 07:50:50;;;;;;;3.63;2.22;;;14.80;90.90;;;;;;5046863;28;20482;-56
2023/04/23 07:53:15;;;;;;;3.55;2.42;;;14.80;91.00;;;;;;5045321;28;20037;-56
2023/04/23 07:55:41;;;;;;;3.55;2.30;;;14.80;91.00;;;;;;5046859;28;20029;-56
2023/04/23 07:58:06;;;;;;;4.03;2.47;;;14.90;90.90;;;;;;5046300;28;20061;-56
2023/04/23 08:00:32;;;;;;;3.83;2.50;;;14.80;90.90;;;;;;5046083;28;20035;-55
2023/04/23 08:02:58;;;;;;;2.90;2.30;;;14.90;91.30;;;;;;5045519;28;20022;-56
2023/04/23 08:05:25;;;;;;;4.55;2.72;;;14.90;91.00;;;;;;5046360;28;20022;-56
2023/04/23 08:07:51;;;;;;;7.05;2.60;;;14.90;91.10;;;;;;5046358;28;20049;-56
2023/04/23 08:10:16;;;;;;;3.30;2.15;;;14.90;91.40;;;;;;5045216;28;20073;-56
2023/04/23 08:12:42;;;;;;;6.07;2.65;;;15.00;91.40;;;;;;5046240;28;20083;-56
2023/04/23 08:15:08;;;;;;;6.22;2.60;;;15.00;91.40;;;;;;5045196;28;20075;-56
2023/04/23 08:17:34;;;;;;;16.02;3.65;;;15.00;91.50;;;;;;5045776;28;20029;-57
2023/04/23 08:20:00;;;;;;;14.73;3.95;;;15.00;91.60;;;;;;5043842;28;20035;-56
2023/04/23 08:22:26;;;;;;;20.55;4.03;;;15.00;91.70;;;;;;5043772;28;20033;-56
2023/04/23 08:24:51;;;;;;;21.27;4.80;;;15.10;91.80;;;;;;5045650;28;20048;-56
2023/04/23 08:27:17;;;;;;;18.85;4.28;;;15.10;91.90;;;;;;5044470;28;20087;-56
2023/04/23 08:29:42;;;;;;;55.10;6.63;;;15.10;92.00;;;;;;5045251;28;20033;-56
2023/04/23 08:32:08;;;;;;;30.73;5.45;;;15.10;92.00;;;;;;5043334;28;20032;-55
2023/04/23 08:34:34;;;;;;;62.63;7.32;;;15.20;92.30;;;;;;5045764;28;20025;-56
2023/04/23 08:37:00;;;;;;;38.53;6.53;;;15.20;92.20;;;;;;5044253;28;20064;-56
2023/04/23 08:39:26;;;;;;;56.33;6.82;;;15.30;92.40;;;;;;5045075;28;20040;-56
2023/04/23 08:41:55;;;;;;;64.28;7.63;;;15.30;92.40;;;;;;5043443;28;20026;-56
2023/04/23 08:44:22;;;;;;;47.90;7.80;;;15.40;92.50;;;;;;5043646;28;20100;-56
2023/04/23 08:46:48;;;;;;;67.15;7.30;;;15.40;92.40;;;;;;5043714;28;20070;-56
2023/04/23 08:49:15;;;;;;;60.58;8.20;;;15.40;92.40;;;;;;5044643;28;20060;-56
2023/04/23 08:51:45;;;;;;;65.82;8.93;;;15.50;92.40;;;;;;5044982;28;20473;-56
2023/04/23 08:54:13;;;;;;;65.45;9.20;;;15.50;92.60;;;;;;5043531;28;20049;-56
2023/04/23 08:56:39;;;;;;;86.75;10.38;;;15.60;92.60;;;;;;5043347;28;20100;-56
2023/04/23 08:59:05;;;;;;;103.25;12.15;;;15.70;92.60;;;;;;5042392;28;20095;-56
2023/04/23 09:01:31;;;;;;;101.75;12.10;;;15.70;92.70;;;;;;5043055;28;20049;-56
2023/04/23 09:03:56;;;;;;;95.45;12.13;;;15.80;92.90;;;;;;5042918;28;20029;-56
2023/04/23 09:06:22;;;;;;;111.78;12.15;;;15.80;92.90;;;;;;5043100;28;20037;-56
2023/04/23 09:08:47;;;;;;;96.32;12.55;;;15.80;92.80;;;;;;5044496;28;20093;-56
2023/04/23 09:11:13;;;;;;;112.93;12.18;;;15.90;92.90;;;;;;5043208;28;20430;-56
2023/04/23 09:13:40;;;;;;;165.95;16.00;;;15.90;93.00;;;;;;5043112;28;20029;-56
2023/04/23 09:16:05;;;;;;;155.68;15.52;;;16.30;93.30;;;;;;5044321;28;20033;-56
2023/04/23 09:18:31;;;;;;;148.95;16.05;;;16.10;93.30;;;;;;5044706;28;20032;-56
2023/04/23 09:20:56;;;;;;;175.25;18.48;;;16.10;93.30;;;;;;5044444;28;20041;-56
2023/04/23 09:23:22;;;;;;;149.77;18.40;;;16.20;93.70;;;;;;5042977;28;20022;-56
2023/04/23 09:25:48;;;;;;;182.13;19.58;;;16.30;93.80;;;;;;5044295;28;20029;-56
2023/04/23 09:28:14;;;;;;;184.48;20.42;;;16.30;93.70;;;;;;5044211;28;20044;-56
2023/04/23 09:30:43;;;;;;;166.30;18.95;;;16.40;93.80;;;;;;5044110;28;20450;-56
2023/04/23 09:33:12;;;;;;;212.55;20.48;;;16.50;94.00;;;;;;5043919;28;20033;-56
2023/04/23 09:35:38;;;;;;;218.02;21.60;;;16.50;93.70;;;;;;5043695;28;20040;-56
2023/04/23 09:38:06;;;;;;;190.52;20.27;;;16.60;93.90;;;;;;5042586;28;20045;-56
2023/04/23 09:40:32;;;;;;;220.95;22.23;;;16.70;93.60;;;;;;5043957;28;20026;-56
2023/04/23 09:42:58;;;;;;;181.50;21.58;;;16.70;93.80;;;;;;5043989;28;20091;-56
2023/04/23 09:45:26;;;;;;;196.30;23.13;;;16.70;93.60;;;;;;5044370;28;20034;-56
2023/04/23 09:47:53;;;;;;;223.68;21.55;;;16.80;93.70;;;;;;5042307;28;20036;-56
2023/04/23 09:50:19;;;;;;;186.80;23.00;;;16.80;93.60;;;;;;5043813;28;20033;-56
2023/04/23 09:52:45;;;;;;;203.32;22.48;;;16.80;93.50;;;;;;5026390;28;20025;-56
2023/04/23 09:55:11;;;;;;;213.68;23.23;;;16.90;93.50;;;;;;5025882;28;20041;-56
2023/04/23 09:57:37;;;;;;;197.98;19.08;;;16.90;93.40;;;;;;5043842;28;20034;-56
2023/04/23 10:00:15;;;;;;;250.40;28.00;;;16.90;93.30;;;;;;5042641;28;20508;-56
2023/04/23 10:02:45;;;;;;;220.13;24.00;;;17.00;93.40;;;;;;5043836;28;20056;-54
2023/04/23 10:05:15;;;;;;;228.10;25.58;;;17.00;93.50;;;;;;5042673;28;20028;-56
2023/04/23 10:07:41;;;;;;;240.93;28.23;;;17.10;93.50;;;;;;5043713;28;20034;-56
2023/04/23 10:10:07;;;;;;;284.17;30.15;;;17.10;93.70;;;;;;5034584;28;20049;-56
2023/04/23 10:12:33;;;;;;;226.77;26.73;;;17.20;93.60;;;;;;5047197;28;20041;-56
2023/04/23 10:14:59;;;;;;;225.43;26.73;;;17.20;93.80;;;;;;5046794;28;20089;-56
2023/04/23 10:17:24;;;;;;;247.32;27.08;;;17.30;93.60;;;;;;5046825;28;20041;-56
2023/04/23 10:19:50;;;;;;;299.73;29.95;;;17.30;93.60;;;;;;5046152;28;20172;-56
2023/04/23 10:22:15;;;;;;;235.00;28.98;;;17.40;93.80;;;;;;5048034;28;20025;-56
2023/04/23 10:24:41;;;;;;;216.45;29.27;;;17.40;93.90;;;;;;5048103;28;20442;-56
2023/04/23 10:27:10;;;;;;;223.15;27.25;;;17.40;93.60;;;;;;5046455;28;20025;-56
2023/04/23 10:29:36;;;;;;;195.77;23.35;;;17.50;93.30;;;;;;5046415;28;20419;-56
2023/04/23 10:32:05;;;;;;;213.32;25.40;;;17.50;93.20;;;;;;5046235;28;20064;-56
2023/04/23 10:34:31;;;;;;;199.55;23.38;;;17.50;93.10;;;;;;5047670;28;20025;-57
2023/04/23 10:37:00;;;;;;;184.77;22.58;;;17.50;92.90;;;;;;5047921;28;20120;-56
2023/04/23 10:39:27;;;;;;;315.52;32.58;;;17.50;93.00;;;;;;5046256;28;20025;-56
2023/04/23 10:41:53;;;;;;;284.23;30.65;;;17.50;93.20;;;;;;5045830;28;20081;-57
2023/04/23 10:44:20;;;;;;;258.38;29.75;;;17.60;93.00;;;;;;5047321;28;20090;-56
2023/04/23 10:46:53;;;;;;;224.13;26.27;;;17.60;92.90;;;;;;5047509;28;20033;-56
2023/04/23 10:49:18;;;;;;;194.80;24.63;;;17.70;92.70;;;;;;5047400;28;20099;-56
2023/04/23 10:51:47;;;;;;;261.40;29.17;;;17.70;92.70;;;;;;5045806;28;20030;-56
2023/04/23 10:54:13;;;;;;;228.95;30.08;;;17.70;92.70;;;;;;5047455;28;20042;-56
2023/04/23 10:56:40;;;;;;;196.27;22.90;;;17.70;92.60;;;;;;5047719;28;20105;-56
2023/04/23 10:59:28;;;;;;;237.52;30.23;;;17.80;92.60;;;;;;5045806;28;20044;-56
2023/04/23 11:01:54;;;;;;;182.18;21.13;;;17.70;92.30;;;;;;5042762;28;20029;-56
2023/04/23 11:04:27;;;;;;;274.73;28.25;;;17.80;92.20;;;;;;5010334;28;20088;-56
2023/04/23 11:07:09;;;;;;;237.25;25.77;;;17.80;92.10;;;;;;5043423;28;20013;-56
2023/04/23 11:09:48;;;;;;;211.30;24.98;;;17.90;92.10;;;;;;5040008;28;20029;-57
2023/04/23 11:12:19;;;;;;;184.70;24.48;;;17.90;92.10;;;;;;5026376;28;20035;-56
2023/04/23 11:14:49;;;;;;;193.32;25.00;;;18.00;92.10;;;;;;5027465;28;20026;-56
2023/04/23 11:17:20;;;;;;;218.02;25.48;;;18.00;92.10;;;;;;5027318;28;20026;-56
2023/04/23 11:20:15;;;;;;;228.95;25.58;;;18.00;91.90;;;;;;5030027;28;20097;-56
2023/04/23 11:22:44;;;;;;;187.57;21.90;;;18.10;91.90;;;;;;5041211;28;20061;-56
2023/04/23 11:25:13;;;;;;;237.20;26.98;;;18.10;91.80;;;;;;5046934;28;20025;-56
2023/04/23 11:27:40;;;;;;;182.50;22.95;;;18.20;91.80;;;;;;5046891;28;20034;-56
2023/04/23 11:30:20;;;;;;;249.15;26.92;;;18.20;91.70;;;;;;5047068;28;20045;-56
2023/04/23 11:32:50;;;;;;;170.07;20.15;;;18.30;91.60;;;;;;5046207;28;20122;-56
2023/04/23 11:35:18;;;;;;;170.05;20.42;;;18.40;91.50;;;;;;5046770;28;20041;-56
2023/04/23 11:37:45;;;;;;;193.50;21.08;;;18.50;91.40;;;;;;5045380;28;20037;-56
2023/04/23 11:40:12;;;;;;;192.40;23.02;;;18.60;91.40;;;;;;5046852;28;20493;-56
2023/04/23 11:42:45;;;;;;;135.90;19.27;;;18.70;91.30;;;;;;5044919;28;20037;-56
2023/04/23 11:45:31;;;;;;;159.85;19.30;;;18.70;91.10;;;;;;5046537;28;20021;-56
2023/04/23 11:47:57;;;;;;;139.55;18.40;;;18.80;90.90;;;;;;5046431;28;20037;-56
2023/04/23 11:50:24;;;;;;;157.10;19.58;;;18.90;90.90;;;;;;5046415;28;20025;-56
2023/04/23 11:52:51;;;;;;;157.20;19.52;;;19.00;90.80;;;;;;5044886;28;20036;-57
2023/04/23 11:55:17;;;;;;;149.38;19.25;;;19.10;90.80;;;;;;5046761;28;20048;-56
2023/04/23 11:57:45;;;;;;;144.70;19.52;;;19.10;90.90;;;;;;5043980;28;20450;-56
2023/04/23 12:00:16;;;;;;;177.20;20.08;;;19.20;90.80;;;;;;5031613;28;20033;-56
2023/04/23 12:03:01;;;;;;;158.40;19.33;;;19.30;90.70;;;;;;5030667;28;20025;-56
2023/04/23 12:05:27;;;;;;;210.55;21.63;;;19.30;90.50;;;;;;5039911;28;20373;-54
2023/04/23 12:07:52;;;;;;;187.48;21.08;;;19.50;90.40;;;;;;5043072;28;20032;-56
2023/04/23 12:10:19;;;;;;;201.40;22.33;;;19.50;90.30;;;;;;5049599;28;20140;-55
2023/04/23 12:12:49;;;;;;;155.38;19.92;;;19.60;90.20;;;;;;5036685;28;20037;-56
2023/04/23 12:15:15;;;;;;;174.57;20.90;;;19.60;90.00;;;;;;5028516;28;20121;-56
2023/04/23 12:17:40;;;;;;;161.15;19.48;;;19.70;89.80;;;;;;5025969;28;20132;-56
2023/04/23 12:20:11;;;;;;;205.88;21.02;;;19.80;88.90;;;;;;5028887;28;20022;-56
2023/04/23 12:22:37;;;;;;;191.23;22.92;;;19.80;88.60;;;;;;5033670;28;20029;-56
2023/04/23 12:25:07;;;;;;;180.18;21.00;;;19.90;88.30;;;;;;5026041;28;20025;-56
2023/04/23 12:27:32;;;;;;;200.10;22.25;;;19.90;88.20;;;;;;5031179;28;20056;-56
2023/04/23 12:30:01;;;;;;;165.10;19.27;;;19.90;87.80;;;;;;5031534;28;20037;-56
2023/04/23 12:32:27;;;;;;;193.05;21.48;;;20.00;87.90;;;;;;5035964;28;20034;-56